Tiempo atmosférico en la estación meteorológica de Villamayor de los Montes, Burgos (882 m.)



Fecha
DESCASC
Temp. máxima en grados centígrados (hora)
DESCASC
Temp. mínima en grados centígrados (hora)
DESCASC
Temp. media en grados centígrados
DESCASC
Racha de viento máxima en m/sg (hora)
DESCASC
Velocidad máxima media en intervalos de 10 minutos(hora)
DESCASC
Precipitaciones diarias en mm
DESCASC
Precipitaciones de 00:00 a 06:00 en mm
DESCASC
Precipitaciones de 06:00 a 12:00 en mm
DESCASC
Precipitaciones de 12:00 a 18:00 en mm
DESCASC
Precipitaciones de 18:00 a 24:00 en mm
DESCASC
22-04-2019 14.2 (16:40) 7.7 (07:30) 10.9 8.33 (15:20) 4.72 (15:00) 0 0 0 0 0
21-04-2019 12.9 (15:40) 5.5 (06:40) 9.2 9.17 (15:10) 5 (11:20) 0 0 0 0 0
20-04-2019 18 (17:20) 6.7 (08:00) 12.3 14.17 (17:10) 8.89 (16:10) 0 0 0 0 0
19-04-2019 13.5 (17:10) 7.7 (05:50) 10.6 10.28 (20:10) 5.28 (20:10) 0.8 0.8 0 0 0
18-04-2019 12.7 (03:20) 6.9 (00:00) 9.8 8.61 (03:10) 4.72 (00:40) 16.2 3.2 5.8 5.2 2
17-04-2019 18.3 (17:10) 9.8 (00:00) 14 12.22 (13:40) 8.06 (14:00) 4.4 0 0 0 4.4
16-04-2019 18.1 (18:20) 5.2 (00:00) 11.7 8.06 (15:10) 3.89 (16:50) 0 0 0 0 0
15-04-2019 21.3 (14:50) 8.4 (00:00) 14.8 15.56 (14:10) 10 (15:00) 8.6 0 0 8.6 0
14-04-2019 18.9 (17:00) 8.8 (00:00) 13.8 5.56 (08:10) 3.61 (05:20) 0 0 0 0 0
13-04-2019 18 (17:40) -4.3 (-00:0) 6.8 6.67 (16:10) 3.33 (16:30) 0 0 0 0 0
12-04-2019 14.1 (17:50) 0.5 (00:00) 7.3 9.72 (15:10) 5.83 (11:40) 0 0 0 0 0
11-04-2019 10.4 (16:30) 1.4 (00:00) 5.9 11.11 (19:10) 6.94 (20:00) 0 0 0 0 0
10-04-2019 11.5 (17:50) 2.7 (00:00) 7.1 12.78 (18:30) 7.78 (18:20) 0.2 0.2 0 0 0
09-04-2019 9.5 (18:30) 2.3 (00:00) 5.9 11.39 (18:10) 6.11 (12:30) 1.2 0 0.2 0.6 0.4
08-04-2019 12.6 (17:30) 4.5 (00:00) 8.6 11.39 (01:10) 6.39 (00:50) 0.4 0.2 0.2 0 0
07-04-2019 10.1 (17:30) 0.2 (00:00) 5.2 10.83 (19:40) 6.11 (19:50) 2 0 0 0 2
06-04-2019 7.1 (17:20) 0.8 (00:00) 3.9 15.56 (13:10) 8.33 (11:20) 1.6 0 0.2 1 0.4
05-04-2019 5.2 (17:10) 1.3 (00:00) 3.2 10.28 (10:30) 6.67 (05:30) 3.4 0.4 2.4 0.6 0
04-04-2019 10 (17:30) -4.4 (-00:0) 2.8 12.5 (17:10) 7.22 (17:10) 0.4 0 0 0 0.4
03-04-2019 10.2 (15:10) -0.3 (00:00) 4.9 13.33 (19:10) 7.78 (19:10) 0 0 0 0 0
02-04-2019 16.3 (17:00) 4 (00:00) 10.1 9.17 (20:50) 5.56 (20:50) 0 0 0 0 0
01-04-2019 15.4 (18:00) 4.5 (00:00) 9.9 5.28 (01:30) 3.06 (21:50) 0.2 0.2 0 0 0
31-03-2019 16.6 (14:20) 3.4 (00:00) 10 9.17 (20:00) 6.67 (19:50) 0 0 0 0 0
30-03-2019 17.6 (15:10) 4.5 (00:00) 11.1 8.06 (22:50) 4.72 (22:50) 0 0 0 0 0
29-03-2019 17.9 (16:00) -0.2 (00:00) 8.8 7.78 (10:10) 4.44 (10:10) 0 0 0 0 0
28-03-2019 16 (15:30) 1.7 (00:00) 8.9 12.5 (18:30) 7.5 (17:30) 0 0 0 0 0
27-03-2019 14.9 (15:40) 2.5 (00:00) 8.7 16.11 (15:20) 10.28 (15:20) 0 0 0 0 0
26-03-2019 14 (15:10) 2.3 (00:00) 8.1 18.06 (05:10) 9.72 (15:30) 0 0 0 0 0
25-03-2019 11.6 (15:10) 2.5 (00:00) 7.1 16.94 (17:10) 10.28 (17:10) 0 0 0 0 0

Gráficas

Temp. máximas Temp. mínimas Temp. medias Precipitaciones Rachas de viento máximas Velocidades máximas media en intervalos de 10 minutos

Datos horarios

Fecha y hora oficial Temperatura (ºC) Velocidad del viento (km/h) Dirección del viento Racha (km/h) Dirección de racha Precipitación (mm) Presión (hPa) Tendencia (hPa) Humedad (%)
2019-04-23 23:00:00 4.6 13 Sur 25 Sudoeste 0 -- -- 93
2019-04-23 22:00:00 4.5 18 Sur 26 Sur 0 -- -- 90
2019-04-23 21:00:00 4.8 14 Sur 38 Sur 0 -- -- 89
2019-04-23 20:00:00 5.1 24 Sur 47 Sur 0 -- -- 85
2019-04-23 19:00:00 9 11 Sur 21 Sudeste 0 -- -- 73
2019-04-23 18:00:00 9.9 14 Sur 23 Sur 0 -- -- 67
2019-04-23 17:00:00 8.2 12 Sur 23 Sudoeste 0 -- -- 72
2019-04-23 16:00:00 7.1 12 Sudoeste 22 Sudoeste 0 -- -- 79
2019-04-23 15:00:00 6.3 8 Oeste 28 Oeste 0 -- -- 86
2019-04-23 14:00:00 6.8 11 Sudoeste 21 Sudoeste 0 -- -- 84
2019-04-23 13:00:00 6.4 12 Sudoeste 25 Sudoeste 0.4 -- -- 84
2019-04-23 12:00:00 6.5 13 Sudoeste 22 Sudoeste 0 -- -- 89
2019-04-23 11:00:00 6.5 8 Sudoeste 17 Sudoeste 0 -- -- 90
2019-04-23 10:00:00 7 6 Oeste 13 Oeste 0 -- -- 90
2019-04-23 09:00:00 7.2 5 Oeste 30 Sudoeste 0 -- -- 93
2019-04-23 08:00:00 8 14 Sur 19 Sur 0 -- -- 92
2019-04-23 07:00:00 8.5 9 Sudeste 17 Sudeste 0 -- -- 92
2019-04-23 06:00:00 8.5 9 Sudeste 15 Sur 0.4 -- -- 94
2019-04-23 05:00:00 8.6 5 Sudeste 14 Oeste 0.2 -- -- 92
2019-04-23 04:00:00 8.8 8 Sudoeste 40 Sudoeste 1 -- -- 89
2019-04-23 03:00:00 10.1 15 Sur 22 Sur 0 -- -- 75
2019-04-23 02:00:00 10.1 15 Sur 27 Sur 0 -- -- 75
2019-04-23 01:00:00 10.3 14 Sur 24 Sur 0 -- -- 75
2019-04-23 00:00:00 10.4 12 Sudeste 24 Sur 0 -- -- 74
2019-04-22 23:00:00 10.2 13 Sudeste 26 Sur 0 -- -- 75
2019-04-22 22:00:00 10.6 13 Sudeste 22 Sudeste 0 -- -- 72
2019-04-22 21:00:00 11.6 9 Sudeste 14 Sur 0 -- -- 65
2019-04-22 20:00:00 13.9 11 Sur 18 Sur 0 -- -- 56
2019-04-22 19:00:00 13.6 12 Sudoeste 21 Sur 0 -- -- 59
2019-04-22 18:00:00 14.1 11 Sudoeste 24 Sur 0 -- -- 55
2019-04-22 17:00:00 14.1 14 Sur 26 Sur 0 -- -- 56
2019-04-22 16:00:00 13.2 12 Sur 30 Sur 0 -- -- 60
2019-04-22 15:00:00 12.7 17 Sur 25 Sur 0 -- -- 60
2019-04-22 14:00:00 13 11 Sudoeste 24 Sudoeste 0 -- -- 62
2019-04-22 13:00:00 11.5 10 Sudoeste 19 Sur 0 -- -- 68
2019-04-22 12:00:00 10.4 11 Sur 18 Sur 0 -- -- 72
2019-04-22 11:00:00 10 8 Sur 13 Sur 0 -- -- 72
2019-04-22 10:00:00 8.9 3 Sur 5 Sudoeste 0 -- -- 80
2019-04-22 09:00:00 7.9 2 Sur 4 Oeste 0 -- -- 90
2019-04-22 08:00:00 7.7 0 Calma 4 Sudoeste 0 -- -- 89
2019-04-22 07:00:00 7.8 3 Oeste 3 Oeste 0 -- -- 84
2019-04-22 06:00:00 7.9 0 Calma 4 Noroeste 0 -- -- 82
2019-04-22 05:00:00 8 2 Norte 4 Norte 0 -- -- 81
2019-04-22 04:00:00 8.1 0 Calma 8 Sur 0 -- -- 79
2019-04-22 03:00:00 8.4 5 Sudeste 8 Sur 0 -- -- 76
2019-04-22 02:00:00 8.7 4 Sudeste 8 Nordeste 0 -- -- 75
2019-04-22 01:00:00 9 5 Nordeste 12 Nordeste 0 -- -- 72
2019-04-22 00:00:00 9.3 8 Nordeste 14 Este 0 -- -- 72
2019-04-21 23:00:00 9.6 5 Nordeste 19 Este 0 -- -- 73
2019-04-21 22:00:00 9.9 9 Nordeste 18 Nordeste 0 -- -- 70
2019-04-21 21:00:00 10.3 4 Este 14 Este 0 -- -- 65
2019-04-21 20:00:00 10.8 7 Este 12 Este 0 -- -- 63
2019-04-21 19:00:00 11 7 Este 15 Este 0 -- -- 64
2019-04-21 18:00:00 11.6 12 Este 23 Nordeste 0 -- -- 62
2019-04-21 17:00:00 11.8 11 Este 23 Este 0 -- -- 64
2019-04-21 16:00:00 12.8 13 Nordeste 33 Nordeste 0 -- -- 58
2019-04-21 15:00:00 11.6 17 Nordeste 28 Nordeste 0 -- -- 66
2019-04-21 14:00:00 11.4 15 Nordeste 27 Norte 0 -- -- 64
2019-04-21 13:00:00 11.4 15 Nordeste 28 Nordeste 0 -- -- 64
2019-04-21 12:00:00 11.2 14 Nordeste 31 Nordeste 0 -- -- 64
2019-04-21 11:00:00 9.5 17 Nordeste 27 Nordeste 0 -- -- 72
2019-04-21 10:00:00 8.7 13 Nordeste 24 Nordeste 0 -- -- 76
2019-04-21 09:00:00 6.5 4 Este 13 Nordeste 0 -- -- 88
2019-04-21 08:00:00 5.7 8 Nordeste 18 Norte 0 -- -- 89
2019-04-21 07:00:00 5.6 9 Nordeste 13 Nordeste 0 -- -- 90
2019-04-21 06:00:00 5.7 4 Nordeste 12 Nordeste 0 -- -- 89
2019-04-21 05:00:00 6.4 5 Nordeste 9 Nordeste 0 -- -- 87
2019-04-21 04:00:00 6.8 2 Noroeste 8 Nordeste 0 -- -- 80
2019-04-21 03:00:00 7.9 3 Este 14 Sudeste 0 -- -- 75
2019-04-21 02:00:00 9.2 3 Sur 13 Nordeste 0 -- -- 71
2019-04-21 01:00:00 10.2 9 Nordeste 22 Nordeste 0 -- -- 78
2019-04-21 00:00:00 10.7 11 Nordeste 22 Nordeste 0 -- -- 75
2019-04-20 23:00:00 11.2 9 Nordeste 21 Nordeste 0 -- -- 72
2019-04-20 22:00:00 11.7 14 Norte 29 Nordeste 0 -- -- 67
2019-04-20 21:00:00 13.3 17 Norte 36 Nordeste 0 -- -- 58
2019-04-20 20:00:00 16 22 Nordeste 39 Norte 0 -- -- 53
2019-04-20 19:00:00 17.4 24 Nordeste 45 Nordeste 0 -- -- 46
2019-04-20 18:00:00 18 26 Nordeste 51 Nordeste 0 -- -- 47
2019-04-20 17:00:00 17.8 31 Nordeste 49 Nordeste 0 -- -- 45
2019-04-20 16:00:00 17.6 28 Nordeste 45 Nordeste 0 -- -- 48
2019-04-20 15:00:00 17.2 24 Nordeste 46 Norte 0 -- -- 50
2019-04-20 14:00:00 16.5 28 Norte 48 Norte 0 -- -- 54
2019-04-20 13:00:00 15.9 25 Nordeste 39 Nordeste 0 -- -- 51
2019-04-20 12:00:00 15 21 Nordeste 36 Nordeste 0 -- -- 51
2019-04-20 11:00:00 13.5 22 Nordeste 39 Norte 0 -- -- 55
2019-04-20 10:00:00 11.8 19 Nordeste 29 Nordeste 0 -- -- 65
2019-04-20 09:00:00 9.3 13 Nordeste 23 Nordeste 0 -- -- 77
2019-04-20 08:00:00 6.7 8 Norte 15 Nordeste 0 -- -- 87
2019-04-20 07:00:00 7.7 11 Nordeste 28 Nordeste 0 -- -- 84
2019-04-20 06:00:00 8.5 15 Nordeste 27 Norte 0 -- -- 83
2019-04-20 05:00:00 9.5 9 Nordeste 16 Nordeste 0 -- -- 79
2019-04-20 04:00:00 9.8 10 Nordeste 18 Nordeste 0 -- -- 77
2019-04-20 03:00:00 9.8 6 Nordeste 12 Norte 0 -- -- 76
2019-04-20 02:00:00 10.9 7 Nordeste 16 Este 0 -- -- 69
2019-04-20 01:00:00 11.5 9 Nordeste 22 Este 0 -- -- 64
2019-04-20 00:00:00 12 11 Este 19 Este 0 -- -- 59
2019-04-19 23:00:00 12.5 11 Sudeste 18 Este 0 -- -- 55
2019-04-19 22:00:00 12.2 10 Este 23 Nordeste 0 -- -- 62
2019-04-19 21:00:00 12.6 12 Nordeste 37 Nordeste 0 -- -- 62
2019-04-19 20:00:00 12.6 17 Nordeste 31 Nordeste 0 -- -- 67
2019-04-19 19:00:00 13 15 Nordeste 26 Este 0 -- -- 69
2019-04-19 18:00:00 13.3 10 Nordeste 19 Nordeste 0 -- -- 74
2019-04-19 17:00:00 13.4 9 Nordeste 20 Nordeste 0 -- -- 73
2019-04-19 16:00:00 11.5 13 Nordeste 21 Norte 0 -- -- 80
2019-04-19 15:00:00 9.1 10 Nordeste 23 Nordeste 0 -- -- 91
2019-04-19 14:00:00 8.9 9 Nordeste 18 Nordeste 0 -- -- 92
2019-04-19 13:00:00 9.1 10 Nordeste 30 Este 0 -- -- 90
2019-04-19 12:00:00 9.8 14 Este 31 Este 0 -- -- 82
2019-04-19 11:00:00 10.2 15 Este 31 Este 0 -- -- 77
2019-04-19 10:00:00 9.5 16 Este 29 Este 0 -- -- 80
2019-04-19 09:00:00 8.7 12 Este 26 Este 0 -- -- 83
2019-04-19 08:00:00 8.2 8 Este 13 Este 0 -- -- 87
2019-04-19 07:00:00 7.9 5 Nordeste 13 Este 0 -- -- 87
2019-04-19 06:00:00 7.7 7 Este 24 Este 0 -- -- 87
2019-04-19 05:00:00 7.9 9 Este 24 Sudeste 0 -- -- 87
2019-04-19 04:00:00 7.9 9 Sudeste 31 Este 0 -- -- 88
2019-04-19 03:00:00 8 9 Este 20 Este 0.4 -- -- 89
2019-04-19 02:00:00 8.4 11 Este 23 Este 0.2 -- -- 87
2019-04-19 01:00:00 8.1 11 Nordeste 17 Nordeste 0.2 -- -- 92
2019-04-19 00:00:00 8.1 5 Nordeste 11 Nordeste 0.2 -- -- 92
2019-04-18 23:00:00 8.2 5 Nordeste 16 Este 1.4 -- -- 90
2019-04-18 22:00:00 8.9 8 Este 15 Este 0.4 -- -- 89
2019-04-18 21:00:00 9.4 6 Nordeste 13 Este 0 -- -- 89
2019-04-18 20:00:00 9.7 8 Este 19 Este 0 -- -- 84
2019-04-18 19:00:00 9.5 7 Nordeste 17 Nordeste 0 -- -- 90
2019-04-18 18:00:00 9.2 9 Nordeste 18 Nordeste 0.4 -- -- 89
2019-04-18 17:00:00 9.7 10 Este 20 Este 0 -- -- 81
2019-04-18 16:00:00 9.6 10 Este 22 Este 0 -- -- 81
2019-04-18 15:00:00 7.9 11 Este 16 Este 0.4 -- -- 88
2019-04-18 14:00:00 7.6 6 Sudeste 21 Sudeste 2.2 -- -- 90
2019-04-18 13:00:00 6.9 12 Sudeste 25 Este 2.2 -- -- 90
2019-04-18 12:00:00 7.9 10 Este 22 Este 0 -- -- 88
2019-04-18 11:00:00 7.6 11 Este 20 Sudeste 0.4 -- -- 88
2019-04-18 10:00:00 7.9 10 Este 17 Este 0.6 -- -- 90
2019-04-18 09:00:00 8.1 7 Sudeste 14 Sudeste 1 -- -- 93
2019-04-18 08:00:00 8.2 8 Sudeste 22 Sur 1.4 -- -- 93
2019-04-18 07:00:00 8.3 15 Sur 24 Sur 2.4 -- -- 93
2019-04-18 06:00:00 8.5 2 Norte 5 Nordeste 1.2 -- -- 92
2019-04-18 05:00:00 8.9 2 Oeste 27 Oeste 2 -- -- 90
2019-04-18 04:00:00 11.2 9 Sudoeste 31 Sur 0 -- -- 81
2019-04-18 03:00:00 12.2 10 Sudeste 28 Sudeste 0 -- -- 81
2019-04-18 02:00:00 11.9 15 Sudeste 27 Sudeste 0 -- -- 84
2019-04-18 01:00:00 12.2 16 Sudeste 31 Sudeste 0 -- -- 82
2019-04-18 00:00:00 12 19 Sudeste 32 Sudeste 2.6 -- -- 84
2019-04-17 23:00:00 11.9 11 Sudeste 19 Sudeste 0 -- -- 87
2019-04-17 22:00:00 11.8 9 Sur 35 Sudoeste 0.8 -- -- 88
2019-04-17 21:00:00 12.7 21 Sudoeste 35 Sudoeste 1 -- -- 80
2019-04-17 20:00:00 16.3 6 Oeste 12 Noroeste 0 -- -- 54
2019-04-17 19:00:00 17.2 4 Sur 22 Sur 0 -- -- 52
2019-04-17 18:00:00 18.3 15 Sur 32 Sur 0 -- -- 43
2019-04-17 17:00:00 18.1 16 Sudeste 38 Sudeste 0 -- -- 43
2019-04-17 16:00:00 17.3 19 Sudeste 39 Sudeste 0 -- -- 47
2019-04-17 15:00:00 17.1 24 Sur 42 Sudeste 0 -- -- 46
2019-04-17 14:00:00 16.2 29 Sur 44 Sudeste 0 -- -- 54
2019-04-17 13:00:00 15.8 18 Sudeste 34 Sudeste 0 -- -- 57
2019-04-17 12:00:00 13.1 14 Sudeste 31 Sur 0 -- -- 66
2019-04-17 11:00:00 11.7 14 Sudeste 36 Sudeste 0 -- -- 71
2019-04-17 10:00:00 10.8 18 Sudeste 36 Sudeste 0 -- -- 72
2019-04-17 09:00:00 10.3 20 Sudeste 36 Sudeste 0 -- -- 73
2019-04-17 08:00:00 10 17 Sudeste 35 Sudeste 0 -- -- 74
2019-04-17 07:00:00 9.8 15 Sudeste 36 Sudeste 0 -- -- 74
2019-04-17 06:00:00 10.3 15 Sudeste 33 Sudeste 0 -- -- 72
2019-04-17 05:00:00 10.8 15 Sudeste 31 Sudeste 0 -- -- 69
2019-04-17 04:00:00 11.1 17 Sudeste 40 Sudeste 0 -- -- 64
2019-04-17 03:00:00 11.3 21 Sudeste 36 Sudeste 0 -- -- 62
2019-04-17 02:00:00 11.6 14 Sudeste 27 Sudeste 0 -- -- 61
2019-04-17 01:00:00 12.6 14 Sudeste 24 Sudeste 0 -- -- 56
2019-04-17 00:00:00 12.7 12 Sudeste 21 Sudeste 0 -- -- 52
2019-04-16 23:00:00 13.1 9 Sudeste 20 Sudeste 0 -- -- 52
2019-04-16 22:00:00 13.9 9 Sudeste 20 Sudeste 0 -- -- 51
2019-04-16 21:00:00 15.7 8 Sudeste 20 Sudeste 0 -- -- 44
2019-04-16 20:00:00 17.7 7 Este 21 Sur 0 -- -- 40
2019-04-16 19:00:00 18 11 Sur 24 Sur 0 -- -- 42
2019-04-16 18:00:00 17.9 9 Sur 23 Sudeste 0 -- -- 40
2019-04-16 17:00:00 17.2 8 Sur 24 Sudoeste 0 -- -- 36
2019-04-16 16:00:00 16.5 11 Sudeste 29 Sur 0 -- -- 35
2019-04-16 15:00:00 15.2 13 Sur 23 Sur 0 -- -- 47
2019-04-16 14:00:00 14 9 Sur 17 Sur 0 -- -- 60
2019-04-16 13:00:00 12.6 4 Sur 13 Sur 0 -- -- 66
2019-04-16 12:00:00 10.7 5 Sur 14 Sudeste 0 -- -- 76
2019-04-16 11:00:00 8.5 7 Sudeste 16 Sur 0 -- -- 86
2019-04-16 10:00:00 6 9 Sur 14 Sur 0 -- -- 95
2019-04-16 09:00:00 5.3 7 Sudeste 15 Sur 0 -- -- 96
2019-04-16 08:00:00 6 10 Sur 15 Sur 0 -- -- 95
2019-04-16 07:00:00 6.1 8 Sudeste 12 Sudeste 0 -- -- 94
2019-04-16 06:00:00 6.6 3 Sudeste 8 Este 0 -- -- 93
2019-04-16 05:00:00 6.3 2 Este 6 Nordeste 0 -- -- 92
2019-04-16 04:00:00 7 4 Norte 7 Norte 0 -- -- 92
2019-04-16 03:00:00 7.1 3 Sur 9 Norte 0 -- -- 90
2019-04-16 02:00:00 8.1 3 Noroeste 12 Noroeste 0 -- -- 88
2019-04-16 01:00:00 8.3 6 Sudoeste 14 Sudoeste 0 -- -- 85
2019-04-16 00:00:00 8.5 12 Sudoeste 20 Sudoeste 0 -- -- 84
2019-04-15 23:00:00 9.8 13 Sur 17 Sudoeste 0 -- -- 79
2019-04-15 22:00:00 10.6 10 Sudoeste 19 Sudoeste 0 -- -- 73
2019-04-15 21:00:00 11.5 9 Oeste 29 Oeste 0 -- -- 66
2019-04-15 20:00:00 13.4 7 Oeste 39 Oeste 0 -- -- 63
2019-04-15 19:00:00 14.5 21 Oeste 43 Oeste 0 -- -- 61
2019-04-15 18:00:00 14.4 7 Norte 14 Norte 3 -- -- 84
2019-04-15 17:00:00 14.1 5 Sudeste 17 Sur 1.6 -- -- 84
2019-04-15 16:00:00 12 13 Oeste 56 Sudoeste 4 -- -- 84
2019-04-15 15:00:00 20.7 36 Sudoeste 56 Sur 0 -- -- 44
2019-04-15 14:00:00 20.6 30 Sur 45 Sur 0 -- -- 51
2019-04-15 13:00:00 18.4 19 Sur 36 Sur 0 -- -- 57
2019-04-15 12:00:00 17.1 21 Sur 36 Sur 0 -- -- 62
2019-04-15 11:00:00 15.9 20 Sur 30 Sudeste 0 -- -- 65
2019-04-15 10:00:00 14.9 19 Sudeste 30 Sur 0 -- -- 66
2019-04-15 09:00:00 13.1 9 Sudeste 21 Sudeste 0 -- -- 73
2019-04-15 08:00:00 11.3 13 Sudeste 22 Sudeste 0 -- -- 78
2019-04-15 07:00:00 9.5 4 Sudeste 14 Sur 0 -- -- 85
2019-04-15 06:00:00 9.4 6 Sudeste 13 Sudeste 0 -- -- 84
2019-04-15 05:00:00 9.4 4 Sudeste 8 Sudeste 0 -- -- 83
2019-04-15 04:00:00 9.6 4 Sudeste 12 Este 0 -- -- 83
2019-04-15 03:00:00 9.3 2 Oeste 8 Sudeste 0 -- -- 82
2019-04-15 02:00:00 11.1 4 Sudeste 10 Sudeste 0 -- -- 76
2019-04-15 01:00:00 10.9 2 Sudeste 12 Este 0 -- -- 75
2019-04-15 00:00:00 12.6 7 Sudeste 12 Sudeste 0 -- -- 70
2019-04-14 23:00:00 13.1 8 Sudeste 12 Sudeste 0 -- -- 68
2019-04-14 22:00:00 14.3 9 Sur 12 Sur 0 -- -- 64
2019-04-14 21:00:00 15.9 8 Sur 10 Sudoeste 0 -- -- 59
2019-04-14 20:00:00 18 6 Sur 10 Sur 0 -- -- 54
2019-04-14 19:00:00 18.3 2 Sudeste 10 Sudoeste 0 -- -- 51
2019-04-14 18:00:00 18.4 8 Sudoeste 13 Oeste 0 -- -- 53
2019-04-14 17:00:00 18.9 5 Sudoeste 16 Sudoeste 0 -- -- 51
2019-04-14 16:00:00 17.7 9 Sudoeste 18 Sudoeste 0 -- -- 56
2019-04-14 15:00:00 17.9 9 Sudoeste 18 Oeste 0 -- -- 58
2019-04-14 14:00:00 17.3 10 Sudoeste 19 Oeste 0 -- -- 57
2019-04-14 13:00:00 16.3 8 Sudoeste 18 Oeste 0 -- -- 63
2019-04-14 12:00:00 14.9 6 Oeste 16 Oeste 0 -- -- 71
2019-04-14 11:00:00 12.8 6 Oeste 17 Oeste 0 -- -- 78
2019-04-14 10:00:00 11.5 7 Sudoeste 15 Sur 0 -- -- 82
2019-04-14 09:00:00 9.6 10 Sur 20 Sur 0 -- -- 85
2019-04-14 08:00:00 8.9 12 Sur 15 Sur 0 -- -- 82
2019-04-14 07:00:00 9.4 10 Sur 15 Sur 0 -- -- 76
2019-04-14 06:00:00 9.7 11 Sur 19 Sur 0 -- -- 74
2019-04-14 05:00:00 9.8 12 Sur 14 Sur 0 -- -- 67
2019-04-14 04:00:00 9.2 10 Sur 15 Sur 0 -- -- 65
2019-04-14 03:00:00 9.3 4 Sur 9 Sur 0 -- -- 62
2019-04-14 02:00:00 9.9 5 Sur 9 Sudoeste 0 -- -- 57
2019-04-14 01:00:00 9.7 4 Sur 9 Sudeste 0 -- -- 57
2019-04-14 00:00:00 10.6 3 Sur 6 Sur 0 -- -- 53
2019-04-13 23:00:00 11.4 3 Sudeste 11 Sur 0 -- -- 54
2019-04-13 22:00:00 13 2 Sur 4 Noroeste 0 -- -- 45
2019-04-13 21:00:00 14.3 3 Noroeste 15 Norte 0 -- -- 41
2019-04-13 20:00:00 17.3 6 Noroeste 17 Oeste 0 -- -- 36
2019-04-13 19:00:00 17.9 10 Oeste 20 Oeste 0 -- -- 34
2019-04-13 18:00:00 17.9 9 Oeste 24 Oeste 0 -- -- 30
2019-04-13 17:00:00 17.7 10 Oeste 24 Norte 0 -- -- 29
2019-04-13 16:00:00 17.2 5 Oeste 22 Oeste 0 -- -- 35
2019-04-13 15:00:00 16.4 8 Norte 19 Norte 0 -- -- 31
2019-04-13 14:00:00 15.4 6 Oeste 14 Noroeste 0 -- -- 33
2019-04-13 13:00:00 13.8 6 Noroeste 14 Noroeste 0 -- -- 34
2019-04-13 12:00:00 11.5 3 Noroeste 9 Oeste 0 -- -- 37
2019-04-13 11:00:00 8.4 4 Sudoeste 6 Oeste 0 -- -- 53
2019-04-13 10:00:00 4.6 2 Sudeste 5 Sur 0 -- -- 68
2019-04-13 09:00:00 -1.6 2 Sudeste 5 Sudeste 0 -- -- 88
2019-04-13 08:00:00 -4.1 0 Calma 3 Este 0 -- -- 87
2019-04-13 07:00:00 -3.8 0 Calma 3 Norte 0 -- -- 87
2019-04-13 06:00:00 -2.9 0 Calma 4 Noroeste 0 -- -- 86
2019-04-13 05:00:00 -1.9 2 Sudeste 7 Este 0 -- -- 86
2019-04-13 04:00:00 -0.6 4 Este 6 Este 0 -- -- 87
2019-04-13 03:00:00 1.2 5 Sur 10 Nordeste 0 -- -- 84
2019-04-13 02:00:00 2.9 8 Nordeste 12 Nordeste 0 -- -- 79
2019-04-13 01:00:00 3.4 4 Norte 9 Nordeste 0 -- -- 75
2019-04-13 00:00:00 5.5 8 Nordeste 19 Nordeste 0 -- -- 69
2019-04-12 23:00:00 6.8 12 Nordeste 25 Nordeste 0 -- -- 66
2019-04-12 22:00:00 8.6 11 Nordeste 18 Nordeste 0 -- -- 59
2019-04-12 21:00:00 10.3 10 Nordeste 23 Norte 0 -- -- 52
2019-04-12 20:00:00 12.5 14 Nordeste 27 Nordeste 0 -- -- 43
2019-04-12 19:00:00 13.6 17 Nordeste 29 Norte 0 -- -- 41
2019-04-12 18:00:00 14 17 Norte 30 Norte 0 -- -- 37
2019-04-12 17:00:00 13.9 16 Norte 31 Norte 0 -- -- 43
2019-04-12 16:00:00 13.1 16 Norte 35 Norte 0 -- -- 45
2019-04-12 15:00:00 12.1 18 Norte 35 Nordeste 0 -- -- 49
2019-04-12 14:00:00 11.1 18 Norte 32 Norte 0 -- -- 53
2019-04-12 13:00:00 10.2 16 Norte 32 Norte 0 -- -- 57
2019-04-12 12:00:00 8.8 17 Nordeste 33 Nordeste 0 -- -- 61
2019-04-12 11:00:00 7.4 16 Norte 24 Norte 0 -- -- 72
2019-04-12 10:00:00 5 14 Norte 23 Norte 0 -- -- 85
2019-04-12 09:00:00 2.1 4 Norte 14 Norte 0 -- -- 95
2019-04-12 08:00:00 0.7 7 Norte 12 Norte 0 -- -- 94
2019-04-12 07:00:00 1.2 5 Nordeste 9 Norte 0 -- -- 94
2019-04-12 06:00:00 1.4 5 Norte 10 Nordeste 0 -- -- 93
2019-04-12 05:00:00 1.7 4 Nordeste 7 Nordeste 0 -- -- 92
2019-04-12 04:00:00 2.6 3 Norte 14 Norte 0 -- -- 90
2019-04-12 03:00:00 3.4 9 Nordeste 19 Nordeste 0 -- -- 89
2019-04-12 02:00:00 3.9 8 Nordeste 21 Nordeste 0 -- -- 87
2019-04-12 01:00:00 4.6 12 Nordeste 28 Nordeste 0 -- -- 88
2019-04-12 00:00:00 4.9 14 Nordeste 24 Norte 0 -- -- 86
2019-04-11 23:00:00 5.2 14 Norte 26 Nordeste 0 -- -- 84
2019-04-11 22:00:00 6 17 Norte 30 Nordeste 0 -- -- 79
2019-04-11 21:00:00 6.7 19 Norte 38 Nordeste 0 -- -- 77
2019-04-11 20:00:00 8.2 25 Norte 40 Nordeste 0 -- -- 71
2019-04-11 19:00:00 9.1 19 Nordeste 35 Norte 0 -- -- 67
2019-04-11 18:00:00 9.8 15 Norte 28 Norte 0 -- -- 64
2019-04-11 17:00:00 10.3 12 Norte 23 Norte 0 -- -- 60
2019-04-11 16:00:00 9.8 12 Norte 22 Nordeste 0 -- -- 59
2019-04-11 15:00:00 9.4 12 Norte 22 Norte 0 -- -- 59
2019-04-11 14:00:00 8.7 11 Norte 22 Norte 0 -- -- 60
2019-04-11 13:00:00 8.7 15 Noroeste 23 Norte 0 -- -- 61
2019-04-11 12:00:00 8.8 13 Norte 27 Norte 0 -- -- 65
2019-04-11 11:00:00 7.7 16 Norte 27 Norte 0 -- -- 68
2019-04-11 10:00:00 5.7 12 Norte 18 Norte 0 -- -- 81
2019-04-11 09:00:00 3.1 3 Noroeste 10 Nordeste 0 -- -- 93
2019-04-11 08:00:00 2.1 5 Nordeste 13 Nordeste 0 -- -- 92
2019-04-11 07:00:00 1.8 7 Nordeste 15 Norte 0 -- -- 93
2019-04-11 06:00:00 1.7 10 Norte 18 Norte 0 -- -- 92
2019-04-11 05:00:00 2.5 10 Norte 21 Norte 0 -- -- 91
2019-04-11 04:00:00 2.7 10 Norte 19 Norte 0 -- -- 92
2019-04-11 03:00:00 3.1 11 Norte 17 Norte 0 -- -- 92
2019-04-11 02:00:00 2.7 8 Norte 14 Norte 0 -- -- 91
2019-04-11 01:00:00 3.4 9 Nordeste 26 Norte 0 -- -- 89
2019-04-11 00:00:00 3.9 15 Norte 25 Norte 0 -- -- 88
2019-04-10 23:00:00 5 13 Norte 33 Norte 0 -- -- 84
2019-04-10 22:00:00 6 21 Norte 33 Norte 0 -- -- 80
2019-04-10 21:00:00 6.5 15 Nordeste 37 Nordeste 0 -- -- 78
2019-04-10 20:00:00 7.8 19 Norte 33 Nordeste 0 -- -- 73
2019-04-10 19:00:00 8 21 Nordeste 46 Nordeste 0 -- -- 71
2019-04-10 18:00:00 11 14 Norte 25 Norte 0 -- -- 55
2019-04-10 17:00:00 10.1 13 Norte 27 Norte 0 -- -- 59
2019-04-10 16:00:00 10 10 Oeste 27 Oeste 0 -- -- 65
2019-04-10 15:00:00 8.7 7 Noroeste 21 Noroeste 0 -- -- 62
2019-04-10 14:00:00 8.1 5 Noroeste 23 Oeste 0 -- -- 67
2019-04-10 13:00:00 7.3 9 Oeste 19 Oeste 0 -- -- 71
2019-04-10 12:00:00 6.1 8 Noroeste 17 Noroeste 0 -- -- 82
2019-04-10 11:00:00 4.6 9 Oeste 16 Oeste 0 -- -- 87
2019-04-10 10:00:00 4.2 5 Noroeste 18 Oeste 0 -- -- 91
2019-04-10 09:00:00 3 6 Oeste 15 Oeste 0 -- -- 94
2019-04-10 08:00:00 2.7 8 Sudoeste 17 Sudoeste 0 -- -- 94
2019-04-10 07:00:00 2.8 8 Oeste 18 Oeste 0 -- -- 93
2019-04-10 06:00:00 3.2 6 Sudoeste 17 Oeste 0 -- -- 92
2019-04-10 05:00:00 3.7 8 Sudoeste 19 Sudoeste 0 -- -- 91
2019-04-10 04:00:00 4.4 9 Oeste 23 Oeste 0 -- -- 90
2019-04-10 03:00:00 4.6 9 Oeste 23 Oeste 0 -- -- 90
2019-04-10 02:00:00 4.9 6 Oeste 26 Sudoeste 0 -- -- 88
2019-04-10 01:00:00 5.2 10 Oeste 26 Oeste 0.2 -- -- 85
2019-04-10 00:00:00 5.9 12 Oeste 22 Oeste 0 -- -- 82
2019-04-09 23:00:00 5.1 3 Sudeste 17 Este 0 -- -- 86
2019-04-09 22:00:00 5 7 Este 22 Norte 0 -- -- 84
2019-04-09 21:00:00 6 12 Nordeste 32 Oeste 0 -- -- 80
2019-04-09 20:00:00 7.9 16 Oeste 33 Oeste 0.4 -- -- 76
2019-04-09 19:00:00 8.9 14 Oeste 41 Oeste 0 -- -- 67
2019-04-09 18:00:00 9 19 Oeste 39 Oeste 0 -- -- 63
2019-04-09 17:00:00 7.3 10 Oeste 31 Oeste 0.2 -- -- 84
2019-04-09 16:00:00 6.9 13 Oeste 30 Oeste 0 -- -- 83
2019-04-09 15:00:00 6.6 13 Sudoeste 38 Sudoeste 0.4 -- -- 84
2019-04-09 14:00:00 7 19 Sudoeste 40 Sudoeste 0 -- -- 81
2019-04-09 13:00:00 6.8 15 Sudoeste 33 Sudoeste 0 -- -- 85
2019-04-09 12:00:00 5.9 19 Sudoeste 31 Sudoeste 0.2 -- -- 87
2019-04-09 11:00:00 4.8 20 Sudoeste 32 Sur 0 -- -- 90
2019-04-09 10:00:00 4.8 18 Sudoeste 30 Sudoeste 0 -- -- 92
2019-04-09 09:00:00 3.9 20 Sur 29 Sur 0 -- -- 93
2019-04-09 08:00:00 3.4 12 Sur 23 Sur 0 -- -- 93
2019-04-09 07:00:00 3 13 Sur 21 Sudoeste 0 -- -- 94
2019-04-09 06:00:00 2.5 13 Sur 20 Sudoeste 0 -- -- 94
2019-04-09 05:00:00 2.5 16 Sur 21 Sudoeste 0 -- -- 94
2019-04-09 04:00:00 2.5 11 Sur 20 Sur 0 -- -- 92
2019-04-09 03:00:00 2.7 8 Sur 14 Sur 0 -- -- 89
2019-04-09 02:00:00 3.1 9 Sur 15 Sur 0 -- -- 88
2019-04-09 01:00:00 4 11 Sur 14 Sur 0 -- -- 83
2019-04-09 00:00:00 5 8 Sudoeste 17 Sudoeste 0 -- -- 80
2019-04-08 23:00:00 5.8 6 Oeste 13 Oeste 0 -- -- 75
2019-04-08 22:00:00 7.1 9 Sudoeste 15 Sudoeste 0 -- -- 69
2019-04-08 21:00:00 9.1 6 Oeste 20 Oeste 0 -- -- 61
2019-04-08 20:00:00 10.7 8 Oeste 23 Oeste 0 -- -- 52
2019-04-08 19:00:00 11.7 9 Oeste 30 Sudoeste 0 -- -- 43
2019-04-08 18:00:00 12.6 13 Oeste 32 Oeste 0 -- -- 43
2019-04-08 17:00:00 11.6 10 Oeste 32 Oeste 0 -- -- 51
2019-04-08 16:00:00 11.4 19 Sudoeste 33 Sudoeste 0 -- -- 59
2019-04-08 15:00:00 11 8 Noroeste 36 Sudoeste 0 -- -- 63
2019-04-08 14:00:00 11.7 17 Sudoeste 39 Oeste 0 -- -- 55
2019-04-08 13:00:00 10.1 15 Oeste 28 Oeste 0 -- -- 67
2019-04-08 12:00:00 9.7 12 Oeste 25 Oeste 0 -- -- 75
2019-04-08 11:00:00 8.7 12 Oeste 27 Oeste 0 -- -- 83
2019-04-08 10:00:00 8 14 Sudoeste 27 Sudoeste 0 -- -- 91
2019-04-08 09:00:00 7.2 12 Sudoeste 25 Sur 0 -- -- 96
2019-04-08 08:00:00 6.9 13 Sudoeste 22 Sur 0 -- -- 96
2019-04-08 07:00:00 6.7 14 Sur 21 Sur 0.2 -- -- 96
2019-04-08 06:00:00 6.6 15 Sur 24 Sur 0 -- -- 95
2019-04-08 05:00:00 6.4 15 Sur 25 Sur 0 -- -- 94
2019-04-08 04:00:00 6.1 13 Sur 26 Sur 0 -- -- 95
2019-04-08 03:00:00 5.2 19 Sur 31 Sur 0 -- -- 95
2019-04-08 02:00:00 5 19 Sur 41 Sudeste 0 -- -- 93
2019-04-08 01:00:00 4.5 22 Sudeste 37 Sudeste 0.2 -- -- 92
2019-04-08 00:00:00 4.5 22 Sur 32 Sudeste 0.2 -- -- 92
2019-04-07 23:00:00 4.6 17 Sur 26 Sudoeste 0.4 -- -- 92
2019-04-07 22:00:00 4.6 14 Sur 28 Sudoeste 0.8 -- -- 91
2019-04-07 21:00:00 5 16 Sudoeste 36 Sudoeste 0.6 -- -- 89
2019-04-07 20:00:00 6.5 21 Sudoeste 39 Sudoeste 0 -- -- 78
2019-04-07 19:00:00 9.3 17 Sudoeste 30 Sudoeste 0 -- -- 51
2019-04-07 18:00:00 9.8 17 Sudoeste 32 Sudoeste 0 -- -- 47
2019-04-07 17:00:00 9.9 13 Sudoeste 30 Sur 0 -- -- 43
2019-04-07 16:00:00 9.2 17 Sudoeste 33 Sudoeste 0 -- -- 54
2019-04-07 15:00:00 9 13 Sudoeste 27 Sudoeste 0 -- -- 55
2019-04-07 14:00:00 8.2 12 Sudoeste 28 Sudoeste 0 -- -- 58
2019-04-07 13:00:00 7.3 13 Sudoeste 27 Sudoeste 0 -- -- 63
2019-04-07 12:00:00 5.7 11 Sudoeste 23 Sudoeste 0 -- -- 71
2019-04-07 11:00:00 3.9 10 Oeste 23 Oeste 0 -- -- 82
2019-04-07 10:00:00 1.6 8 Sudoeste 22 Sudoeste 0 -- -- 92
2019-04-07 09:00:00 0.8 14 Sur 20 Sur 0 -- -- 94
2019-04-07 08:00:00 0.5 9 Sudoeste 19 Sudoeste 0 -- -- 93
2019-04-07 07:00:00 0.7 8 Sudoeste 18 Sudoeste 0 -- -- 93
2019-04-07 06:00:00 1.2 8 Sudoeste 18 Oeste 0 -- -- 93
2019-04-07 05:00:00 0.9 7 Sudoeste 14 Sudoeste 0 -- -- 94
2019-04-07 04:00:00 0.3 5 Sudoeste 15 Sudoeste 0 -- -- 93
2019-04-07 03:00:00 0.6 8 Sudoeste 22 Sudoeste 0 -- -- 91
2019-04-07 02:00:00 1.2 12 Sudoeste 18 Sudoeste 0 -- -- 89
2019-04-07 01:00:00 2.6 8 Oeste 26 Oeste 0 -- -- 79
2019-04-07 00:00:00 3.3 9 Oeste 24 Oeste 0 -- -- 79
2019-04-06 23:00:00 3.7 13 Oeste 24 Oeste 0 -- -- 81
2019-04-06 22:00:00 3.8 13 Oeste 28 Sudoeste 0 -- -- 83
2019-04-06 21:00:00 3.3 18 Sudoeste 36 Sudoeste 0 -- -- 88
2019-04-06 20:00:00 3.2 16 Sudoeste 36 Oeste 0.2 -- -- 89
2019-04-06 19:00:00 3.5 17 Oeste 44 Oeste 0.2 -- -- 86
2019-04-06 18:00:00 6.5 21 Sudoeste 42 Sudoeste 0 -- -- 75
2019-04-06 17:00:00 6.1 16 Sudoeste 41 Sudoeste 0.4 -- -- 81
2019-04-06 16:00:00 5.6 20 Sudoeste 47 Sudoeste 0.6 -- -- 81
2019-04-06 15:00:00 4.9 23 Sudoeste 48 Oeste 0 -- -- 84
2019-04-06 14:00:00 5.4 24 Sudoeste 56 Sudoeste 0 -- -- 80
2019-04-06 13:00:00 4 25 Sudoeste 42 Sudoeste 0 -- -- 82
2019-04-06 12:00:00 3.7 26 Sudoeste 47 Sudoeste 0 -- -- 80
2019-04-06 11:00:00 3.3 25 Sudoeste 39 Sudoeste 0 -- -- 87
2019-04-06 10:00:00 2.2 20 Sur 32 Sur 0.2 -- -- 94
2019-04-06 09:00:00 1.7 18 Sudoeste 31 Sudoeste 0 -- -- 94
2019-04-06 08:00:00 1.9 16 Sudoeste 27 Sudoeste 0 -- -- 90
2019-04-06 07:00:00 1.8 13 Sudoeste 24 Sudoeste 0 -- -- 90
2019-04-06 06:00:00 1.9 14 Sudoeste 26 Sudoeste 0 -- -- 91
2019-04-06 05:00:00 2 13 Sudoeste 27 Sudoeste 0 -- -- 93
2019-04-06 04:00:00 2 14 Sudoeste 27 Sudoeste 0 -- -- 92
2019-04-06 03:00:00 2 15 Sudoeste 23 Sudoeste 0 -- -- 94
2019-04-06 02:00:00 1.2 13 Sur 22 Sudoeste 0 -- -- 94
2019-04-06 01:00:00 0.9 12 Sudoeste 25 Sur 0 -- -- 93
2019-04-06 00:00:00 1.3 15 Sur 24 Sur 0 -- -- 93
2019-04-05 23:00:00 1.7 10 Sur 20 Sudoeste 0 -- -- 92
2019-04-05 22:00:00 1.5 6 Sudoeste 25 Sur 0 -- -- 92
2019-04-05 21:00:00 2.1 13 Sur 20 Sur 0 -- -- 89
2019-04-05 20:00:00 2.6 14 Sur 24 Sudeste 0 -- -- 86
2019-04-05 19:00:00 2.4 16 Sur 28 Sur 0 -- -- 90
2019-04-05 18:00:00 3.2 12 Sur 18 Sudoeste 0.6 -- -- 87
2019-04-05 17:00:00 5.1 9 Sur 23 Sudoeste 0 -- -- 82
2019-04-05 16:00:00 3.3 14 Sur 21 Sur 0 -- -- 88
2019-04-05 15:00:00 3.7 13 Sudoeste 31 Sudoeste 0 -- -- 84
2019-04-05 14:00:00 4.9 12 Sudoeste 23 Sudoeste 0 -- -- 80
2019-04-05 13:00:00 4.6 13 Sudoeste 24 Sudoeste 0 -- -- 82
2019-04-05 12:00:00 4.3 11 Sudoeste 21 Sur 0 -- -- 88
2019-04-05 11:00:00 2.6 15 Sur 37 Sudoeste 1.6 -- -- 93
2019-04-05 10:00:00 3.4 10 Sur 27 Sur 0.2 -- -- 93
2019-04-05 09:00:00 3.4 19 Sur 30 Sur 0.4 -- -- 93
2019-04-05 08:00:00 3.2 21 Sur 27 Sur 0 -- -- 92
2019-04-05 07:00:00 2.9 20 Sur 28 Sur 0.2 -- -- 92
2019-04-05 06:00:00 2.9 22 Sur 35 Sur 0.2 -- -- 90
2019-04-05 05:00:00 3 19 Sur 30 Sur 0 -- -- 89
2019-04-05 04:00:00 3.2 17 Sur 31 Sur 0 -- -- 89
2019-04-05 03:00:00 3.2 16 Sur 24 Sur 0 -- -- 89
2019-04-05 02:00:00 3.1 14 Sur 23 Sur 0 -- -- 90
2019-04-05 01:00:00 2.8 8 Sur 14 Sudoeste 0.2 -- -- 91
2019-04-05 00:00:00 2.7 10 Sudoeste 17 Sudoeste 0.2 -- -- 90
2019-04-04 23:00:00 3 7 Sudoeste 22 Sudoeste 0.2 -- -- 87
2019-04-04 22:00:00 4 11 Oeste 32 Oeste 0 -- -- 75
2019-04-04 21:00:00 6.1 15 Oeste 32 Sudoeste 0 -- -- 55
2019-04-04 20:00:00 7.6 19 Sudoeste 40 Sudoeste 0 -- -- 42
2019-04-04 19:00:00 8.7 21 Sudoeste 36 Sudoeste 0 -- -- 36
2019-04-04 18:00:00 9.6 19 Sudoeste 45 Sudoeste 0 -- -- 34
2019-04-04 17:00:00 9.6 24 Sudoeste 43 Sudoeste 0 -- -- 32
2019-04-04 16:00:00 9.3 23 Sudoeste 42 Sudoeste 0 -- -- 34
2019-04-04 15:00:00 8.9 18 Sudoeste 37 Sudoeste 0 -- -- 39
2019-04-04 14:00:00 7.6 14 Sudoeste 30 Sudoeste 0 -- -- 43
2019-04-04 13:00:00 7 16 Sudoeste 28 Sudoeste 0 -- -- 47
2019-04-04 12:00:00 4.6 9 Sudoeste 23 Sudoeste 0 -- -- 56
2019-04-04 11:00:00 2.3 9 Sudoeste 22 Sur 0 -- -- 68
2019-04-04 10:00:00 -0.3 10 Sur 17 Sur 0 -- -- 77
2019-04-04 09:00:00 -3 5 Sudeste 13 Sur 0 -- -- 87
2019-04-04 08:00:00 -4.2 6 Sudeste 11 Sur 0 -- -- 85
2019-04-04 07:00:00 -3.8 7 Sur 10 Sudoeste 0 -- -- 86
2019-04-04 06:00:00 -3.8 4 Sudoeste 11 Sur 0 -- -- 80
2019-04-04 05:00:00 -3.4 4 Sudoeste 7 Sudoeste 0 -- -- 79
2019-04-04 04:00:00 -2.4 3 Sudoeste 10 Oeste 0 -- -- 76
2019-04-04 03:00:00 -2.2 2 Norte 6 Noroeste 0 -- -- 76
2019-04-04 02:00:00 -1.5 3 Norte 8 Oeste 0 -- -- 73
2019-04-04 01:00:00 -0.2 5 Oeste 11 Oeste 0 -- -- 69
2019-04-04 00:00:00 -0.3 3 Noroeste 8 Noroeste 0 -- -- 74
2019-04-03 23:00:00 0.6 2 Sur 11 Norte 0 -- -- 71
2019-04-03 22:00:00 2 7 Nordeste 22 Norte 0 -- -- 67
2019-04-03 21:00:00 2.8 12 Norte 37 Nordeste 0 -- -- 67
2019-04-03 20:00:00 5.5 24 Norte 48 Norte 0 -- -- 56
2019-04-03 19:00:00 8 27 Noroeste 42 Noroeste 0 -- -- 32
2019-04-03 18:00:00 7.5 15 Noroeste 39 Noroeste 0 -- -- 43
2019-04-03 17:00:00 6.7 26 Norte 42 Nordeste 0 -- -- 59
2019-04-03 16:00:00 7.9 13 Oeste 41 Noroeste 0 -- -- 48
2019-04-03 15:00:00 9.7 16 Noroeste 41 Oeste 0 -- -- 42
2019-04-03 14:00:00 9.4 15 Noroeste 31 Norte 0 -- -- 39
2019-04-03 13:00:00 8.3 13 Noroeste 29 Noroeste 0 -- -- 48
2019-04-03 12:00:00 7.5 12 Noroeste 27 Noroeste 0 -- -- 55
2019-04-03 11:00:00 5.7 8 Noroeste 18 Oeste 0 -- -- 72
2019-04-03 10:00:00 4.4 8 Oeste 14 Oeste 0 -- -- 90
2019-04-03 09:00:00 3.6 2 Oeste 9 Sur 0 -- -- 91
2019-04-03 08:00:00 2.8 6 Sur 11 Sudoeste 0 -- -- 93
2019-04-03 07:00:00 2 2 Sudoeste 6 Oeste 0 -- -- 92
2019-04-03 06:00:00 2 2 Oeste 7 Oeste 0 -- -- 92
2019-04-03 05:00:00 2.1 4 Sudoeste 8 Oeste 0 -- -- 88
2019-04-03 04:00:00 4.2 4 Norte 15 Nordeste 0 -- -- 85
2019-04-03 03:00:00 4.7 8 Norte 19 Nordeste 0 -- -- 85
2019-04-03 02:00:00 6 10 Nordeste 32 Norte 0 -- -- 84
2019-04-03 01:00:00 6.8 21 Norte 30 Norte 0 -- -- 81
2019-04-03 00:00:00 7.2 18 Norte 30 Norte 0 -- -- 78
2019-04-02 23:00:00 7.9 17 Nordeste 30 Nordeste 0 -- -- 78
2019-04-02 22:00:00 9 14 Nordeste 30 Nordeste 0 -- -- 73
2019-04-02 21:00:00 11.6 19 Nordeste 33 Nordeste 0 -- -- 60
2019-04-02 20:00:00 14 3 Oeste 15 Noroeste 0 -- -- 46
2019-04-02 19:00:00 15.4 8 Sudoeste 25 Sudoeste 0 -- -- 45
2019-04-02 18:00:00 14.6 8 Norte 28 Noroeste 0 -- -- 44
2019-04-02 17:00:00 16.3 8 Noroeste 19 Noroeste 0 -- -- 42
2019-04-02 16:00:00 15.3 10 Oeste 18 Noroeste 0 -- -- 44
2019-04-02 15:00:00 15.4 8 Sudoeste 17 Noroeste 0 -- -- 45
2019-04-02 14:00:00 14.3 5 Sur 12 Sudeste 0 -- -- 48
2019-04-02 13:00:00 13.6 4 Noroeste 15 Sudoeste 0 -- -- 55
2019-04-02 12:00:00 12.2 3 Sur 13 Norte 0 -- -- 61
2019-04-02 11:00:00 10.6 8 Nordeste 14 Nordeste 0 -- -- 62
2019-04-02 10:00:00 8.1 3 Este 7 Este 0 -- -- 77
2019-04-02 09:00:00 4.7 2 Sur 8 Este 0 -- -- 88
2019-04-02 08:00:00 4.1 2 Nordeste 7 Este 0 -- -- 87
2019-04-02 07:00:00 4.5 6 Este 10 Este 0 -- -- 88
2019-04-02 06:00:00 4.6 3 Sur 12 Este 0 -- -- 87
2019-04-02 05:00:00 5.5 7 Este 9 Este 0 -- -- 86
2019-04-02 04:00:00 4.2 4 Norte 6 Nordeste 0 -- -- 84
2019-04-02 03:00:00 5.9 4 Este 9 Este 0 -- -- 82
2019-04-02 02:00:00 5.4 4 Nordeste 10 Este 0 -- -- 82
2019-04-02 01:00:00 6.8 8 Este 17 Este 0 -- -- 73
2019-04-02 00:00:00 7.6 7 Nordeste 17 Nordeste 0 -- -- 70
2019-04-01 23:00:00 8.9 10 Este 16 Este 0 -- -- 67
2019-04-01 22:00:00 9.8 9 Nordeste 17 Nordeste 0 -- -- 68
2019-04-01 21:00:00 11.3 7 Nordeste 12 Norte 0 -- -- 56
2019-04-01 20:00:00 14 5 Norte 13 Norte 0 -- -- 48
2019-04-01 19:00:00 14.8 6 Norte 15 Noroeste 0 -- -- 44
2019-04-01 18:00:00 15.4 6 Noroeste 16 Norte 0 -- -- 44
2019-04-01 17:00:00 13.9 6 Norte 13 Norte 0 -- -- 49
2019-04-01 16:00:00 13.4 5 Noroeste 17 Nordeste 0 -- -- 51
2019-04-01 15:00:00 12.9 4 Norte 14 Este 0 -- -- 56
2019-04-01 14:00:00 12.1 4 Este 9 Este 0 -- -- 58
2019-04-01 13:00:00 12 5 Sudoeste 11 Sudoeste 0 -- -- 62
2019-04-01 12:00:00 10.3 4 Noroeste 11 Sudoeste 0 -- -- 66
2019-04-01 11:00:00 8.9 3 Oeste 8 Oeste 0 -- -- 74
2019-04-01 10:00:00 6.3 2 Oeste 5 Oeste 0 -- -- 86
2019-04-01 09:00:00 5.1 0 Calma 2 Norte 0 -- -- 88
2019-04-01 08:00:00 4.7 2 Sudeste 4 Nordeste 0 -- -- 86
2019-04-01 07:00:00 5.4 3 Nordeste 8 Norte 0 -- -- 84
2019-04-01 06:00:00 5.9 4 Norte 8 Norte 0 -- -- 86
2019-04-01 05:00:00 6.1 5 Noroeste 6 Noroeste 0 -- -- 84
2019-04-01 04:00:00 6.5 2 Sudeste 12 Este 0.2 -- -- 79
2019-04-01 03:00:00 6.9 5 Este 13 Este 0 -- -- 78
2019-04-01 02:00:00 7.4 9 Este 19 Sudeste 0 -- -- 71
2019-04-01 01:00:00 8 7 Este 16 Sudeste 0 -- -- 69
2019-04-01 00:00:00 8.1 8 Sudeste 17 Sudeste 0 -- -- 69
2019-03-31 23:00:00 8 9 Sudeste 22 Sur 0 -- -- 70
2019-03-31 22:00:00 8.6 12 Sur 18 Sur 0 -- -- 69
2019-03-31 21:00:00 10.1 15 Sur 31 Sur 0 -- -- 62
2019-03-31 20:00:00 11.7 23 Sur 33 Sur 0 -- -- 54
2019-03-31 19:00:00 12.9 22 Sur 30 Sur 0 -- -- 47
2019-03-31 18:00:00 14.6 11 Nordeste 26 Nordeste 0 -- -- 42
2019-03-31 17:00:00 15.3 9 Norte 22 Norte 0 -- -- 38
2019-03-31 16:00:00 15.4 10 Nordeste 21 Este 0 -- -- 34
2019-03-31 15:00:00 15.7 7 Este 25 Norte 0 -- -- 33
2019-03-31 14:00:00 15.7 7 Nordeste 22 Sudeste 0 -- -- 31
2019-03-31 13:00:00 15.8 8 Este 23 Este 0 -- -- 35
2019-03-31 12:00:00 13.8 9 Sudeste 17 Sur 0 -- -- 44
2019-03-31 11:00:00 12.1 11 Este 20 Sudeste 0 -- -- 46
2019-03-31 10:00:00 8.2 5 Este 16 Nordeste 0 -- -- 52
2019-03-31 09:00:00 3.8 10 Nordeste 16 Nordeste 0 -- -- 61
2019-03-31 08:00:00 3.4 4 Nordeste 17 Nordeste 0 -- -- 61
2019-03-31 07:00:00 4.7 8 Nordeste 13 Nordeste 0 -- -- 56
2019-03-31 06:00:00 6.5 6 Nordeste 28 Sudeste 0 -- -- 49
2019-03-31 05:00:00 8.2 14 Sudeste 23 Este 0 -- -- 45
2019-03-31 03:00:00 8.6 14 Sudeste 27 Sudeste 0 -- -- 42
2019-03-31 01:00:00 9.2 17 Sudeste 29 Sudeste 0 -- -- 40
2019-03-31 00:00:00 8.9 13 Este 27 Sudeste 0 -- -- 43
2019-03-30 23:00:00 10.2 14 Sudeste 29 Sudeste 0 -- -- 40
2019-03-30 22:00:00 9.9 10 Este 17 Sudeste 0 -- -- 46
2019-03-30 21:00:00 11.3 9 Nordeste 15 Nordeste 0 -- -- 50
2019-03-30 20:00:00 13.2 10 Nordeste 20 Nordeste 0 -- -- 44
2019-03-30 19:00:00 14.5 13 Norte 19 Nordeste 0 -- -- 39
2019-03-30 18:00:00 15 12 Nordeste 21 Nordeste 0 -- -- 38
2019-03-30 17:00:00 15.6 12 Norte 26 Norte 0 -- -- 35
2019-03-30 16:00:00 16.4 7 Este 23 Sudeste 0 -- -- 27
2019-03-30 15:00:00 17.4 13 Sur 28 Sur 0 -- -- 28
2019-03-30 14:00:00 16.1 8 Sur 26 Sudeste 0 -- -- 31
2019-03-30 13:00:00 15.8 11 Sur 28 Sudoeste 0 -- -- 33
2019-03-30 12:00:00 14.9 14 Sur 25 Sudeste 0 -- -- 36
2019-03-30 11:00:00 13.4 14 Sudeste 26 Sur 0 -- -- 41
2019-03-30 10:00:00 11 13 Sudeste 25 Sudeste 0 -- -- 48
2019-03-30 09:00:00 8.6 11 Sudeste 27 Sudeste 0 -- -- 54
2019-03-30 08:00:00 5.9 12 Sudeste 22 Sudeste 0 -- -- 61
2019-03-30 07:00:00 4.6 9 Sudeste 17 Sudeste 0 -- -- 66
2019-03-30 06:00:00 5.4 4 Este 18 Sudeste 0 -- -- 63
2019-03-30 05:00:00 6.3 11 Sudeste 20 Este 0 -- -- 61
2019-03-30 04:00:00 6.7 10 Sudeste 19 Este 0 -- -- 59
2019-03-30 03:00:00 7 11 Sudeste 22 Sudeste 0 -- -- 58
2019-03-30 02:00:00 7.9 11 Sudeste 26 Sudeste 0 -- -- 56
2019-03-30 01:00:00 8.6 13 Sudeste 27 Sudeste 0 -- -- 53
2019-03-30 00:00:00 9.3 11 Sudeste 18 Este 0 -- -- 38
2019-03-29 23:00:00 8.9 11 Sur 19 Sudeste 0 -- -- 38
2019-03-29 22:00:00 10.5 13 Sur 19 Sudeste 0 -- -- 36
2019-03-29 21:00:00 11.8 10 Sudeste 19 Sudeste 0 -- -- 34
2019-03-29 20:00:00 12.7 10 Sudeste 16 Sudeste 0 -- -- 33
2019-03-29 19:00:00 14.6 7 Sudeste 17 Sudeste 0 -- -- 30
2019-03-29 18:00:00 17.1 12 Sudeste 22 Sur 0 -- -- 27
2019-03-29 17:00:00 17.9 13 Sur 23 Sur 0 -- -- 25
2019-03-29 16:00:00 17.9 9 Sur 22 Sudoeste 0 -- -- 26
2019-03-29 15:00:00 17.4 10 Sur 21 Sur 0 -- -- 28
2019-03-29 14:00:00 16.7 10 Sur 22 Sur 0 -- -- 28
2019-03-29 13:00:00 16.2 6 Sur 21 Sur 0 -- -- 30
2019-03-29 12:00:00 15.2 12 Sur 27 Sur 0 -- -- 30
2019-03-29 11:00:00 13.6 11 Sur 28 Sur 0 -- -- 38
2019-03-29 10:00:00 11.3 13 Sur 23 Sur 0 -- -- 42
2019-03-29 09:00:00 8.2 10 Sudeste 19 Sudeste 0 -- -- 52
2019-03-29 08:00:00 2 0 Calma 5 Este 0 -- -- 75
2019-03-29 07:00:00 -0.2 3 Este 5 Norte 0 -- -- 83
2019-03-29 06:00:00 0.7 0 Calma 5 Este 0 -- -- 82
2019-03-29 05:00:00 2.4 3 Nordeste 8 Nordeste 0 -- -- 78
2019-03-29 04:00:00 3 6 Nordeste 12 Nordeste 0 -- -- 78
2019-03-29 03:00:00 3.8 6 Nordeste 13 Este 0 -- -- 76
2019-03-29 02:00:00 4.1 5 Este 15 Nordeste 0 -- -- 76
2019-03-29 01:00:00 5 12 Nordeste 20 Nordeste 0 -- -- 74
2019-03-29 00:00:00 5.9 5 Nordeste 18 Nordeste 0 -- -- 73
2019-03-28 23:00:00 6.9 11 Nordeste 25 Nordeste 0 -- -- 71
2019-03-28 22:00:00 7.9 17 Nordeste 34 Nordeste 0 -- -- 69
2019-03-28 21:00:00 9.1 21 Nordeste 36 Nordeste 0 -- -- 64
2019-03-28 20:00:00 10.7 21 Nordeste 40 Nordeste 0 -- -- 56
2019-03-28 19:00:00 12.8 19 Nordeste 45 Norte 0 -- -- 46
2019-03-28 18:00:00 14.4 26 Nordeste 44 Norte 0 -- -- 41
2019-03-28 17:00:00 15.4 26 Nordeste 43 Nordeste 0 -- -- 37
2019-03-28 16:00:00 15.9 21 Nordeste 37 Norte 0 -- -- 35
2019-03-28 15:00:00 15.8 21 Norte 37 Norte 0 -- -- 34
2019-03-28 14:00:00 14.9 22 Norte 36 Norte 0 -- -- 37
2019-03-28 13:00:00 13.5 18 Norte 32 Norte 0 -- -- 43
2019-03-28 12:00:00 11.7 17 Norte 33 Norte 0 -- -- 44
2019-03-28 11:00:00 10 17 Nordeste 30 Norte 0 -- -- 54
2019-03-28 10:00:00 7.8 19 Nordeste 33 Nordeste 0 -- -- 58
2019-03-28 09:00:00 5.3 15 Nordeste 31 Nordeste 0 -- -- 72
2019-03-28 08:00:00 3.3 18 Nordeste 28 Nordeste 0 -- -- 80
2019-03-28 07:00:00 2.3 18 Nordeste 32 Nordeste 0 -- -- 82
2019-03-28 06:00:00 2 21 Nordeste 37 Nordeste 0 -- -- 84
2019-03-28 05:00:00 1.7 9 Nordeste 22 Nordeste 0 -- -- 80
2019-03-28 04:00:00 2.5 9 Nordeste 25 Nordeste 0 -- -- 72
2019-03-28 03:00:00 2.8 20 Nordeste 31 Nordeste 0 -- -- 69
2019-03-28 02:00:00 3.3 13 Nordeste 37 Nordeste 0 -- -- 61
2019-03-28 01:00:00 3.9 21 Nordeste 42 Nordeste 0 -- -- 53
2019-03-28 00:00:00 4.5 27 Nordeste 47 Nordeste 0 -- -- 44
2019-03-27 23:00:00 5.5 23 Nordeste 53 Nordeste 0 -- -- 38
2019-03-27 22:00:00 6.5 29 Nordeste 53 Nordeste 0 -- -- 46
2019-03-27 21:00:00 7.8 32 Nordeste 52 Nordeste 0 -- -- 43
2019-03-27 20:00:00 9.5 29 Nordeste 51 Nordeste 0 -- -- 39
2019-03-27 19:00:00 11.9 24 Nordeste 43 Nordeste 0 -- -- 32
2019-03-27 18:00:00 13.6 21 Nordeste 52 Norte 0 -- -- 28
2019-03-27 17:00:00 14.6 21 Nordeste 45 Nordeste 0 -- -- 29
2019-03-27 16:00:00 14.6 27 Nordeste 58 Nordeste 0 -- -- 29
2019-03-27 15:00:00 14.7 37 Nordeste 54 Nordeste 0 -- -- 29
2019-03-27 14:00:00 14.2 32 Nordeste 50 Norte 0 -- -- 25
2019-03-27 13:00:00 14 25 Nordeste 42 Norte 0 -- -- 23
2019-03-27 12:00:00 12.6 23 Nordeste 41 Nordeste 0 -- -- 25
2019-03-27 11:00:00 10.5 22 Nordeste 35 Nordeste 0 -- -- 33
2019-03-27 10:00:00 8.5 19 Nordeste 34 Nordeste 0 -- -- 41
2019-03-27 09:00:00 6 21 Nordeste 34 Nordeste 0 -- -- 52
2019-03-27 08:00:00 4 20 Nordeste 34 Nordeste 0 -- -- 59
2019-03-27 07:00:00 3.2 22 Nordeste 34 Nordeste 0 -- -- 62
2019-03-27 06:00:00 2.5 18 Nordeste 29 Nordeste 0 -- -- 70
2019-03-27 05:00:00 2.6 15 Nordeste 33 Nordeste 0 -- -- 73
2019-03-27 04:00:00 2.9 18 Nordeste 34 Nordeste 0 -- -- 73
2019-03-27 03:00:00 2.8 10 Este 33 Nordeste 0 -- -- 73
2019-03-27 02:00:00 2.6 5 Sudeste 20 Este 0 -- -- 71
2019-03-27 01:00:00 3.1 9 Nordeste 30 Este 0 -- -- 66
2019-03-27 00:00:00 3.8 17 Nordeste 41 Nordeste 0 -- -- 58
2019-03-26 23:00:00 4.5 23 Nordeste 44 Nordeste 0 -- -- 51
2019-03-26 22:00:00 5.1 22 Nordeste 43 Nordeste 0 -- -- 47
2019-03-26 21:00:00 6.5 26 Nordeste 53 Nordeste 0 -- -- 36
2019-03-26 20:00:00 8.4 22 Nordeste 51 Nordeste 0 -- -- 28
2019-03-26 19:00:00 10.8 27 Nordeste 52 Nordeste 0 -- -- 25
2019-03-26 18:00:00 12.7 32 Nordeste 52 Nordeste 0 -- -- 23
2019-03-26 17:00:00 13.3 30 Nordeste 55 Norte 0 -- -- 25
2019-03-26 16:00:00 13.8 32 Nordeste 58 Nordeste 0 -- -- 25
2019-03-26 15:00:00 13.8 33 Nordeste 51 Nordeste 0 -- -- 25
2019-03-26 14:00:00 13.5 29 Nordeste 49 Nordeste 0 -- -- 26
2019-03-26 13:00:00 12.3 30 Nordeste 50 Nordeste 0 -- -- 30
2019-03-26 12:00:00 11.3 27 Nordeste 45 Nordeste 0 -- -- 28
2019-03-26 11:00:00 8.8 29 Nordeste 48 Nordeste 0 -- -- 38
2019-03-26 10:00:00 6.5 29 Nordeste 48 Nordeste 0 -- -- 49
2019-03-26 09:00:00 4 25 Nordeste 53 Nordeste 0 -- -- 64
2019-03-26 08:00:00 2.5 27 Nordeste 47 Nordeste 0 -- -- 73
2019-03-26 07:00:00 2.8 30 Nordeste 55 Nordeste 0 -- -- 72
2019-03-26 06:00:00 3.1 21 Nordeste 65 Nordeste 0 -- -- 72
2019-03-26 05:00:00 3.4 28 Nordeste 50 Nordeste 0 -- -- 74
2019-03-26 04:00:00 3.6 25 Nordeste 51 Nordeste 0 -- -- 77
2019-03-26 03:00:00 3.3 18 Nordeste 46 Nordeste 0 -- -- 80
2019-03-26 02:00:00 2.9 19 Nordeste 42 Norte 0 -- -- 77
2019-03-26 01:00:00 2.3 25 Nordeste 47 Nordeste 0 -- -- 76
2019-03-26 00:00:00 2.5 28 Nordeste 51 Nordeste 0 -- -- 75
2019-03-25 23:00:00 2.9 33 Nordeste 56 Nordeste 0 -- -- 72
2019-03-25 22:00:00 4 32 Nordeste 51 Nordeste 0 -- -- 70
2019-03-25 21:00:00 5.2 27 Nordeste 46 Nordeste 0 -- -- 65
2019-03-25 20:00:00 6.7 30 Nordeste 50 Nordeste 0 -- -- 59
2019-03-25 19:00:00 8.7 30 Nordeste 61 Nordeste 0 -- -- 52
2019-03-25 18:00:00 10.1 31 Nordeste 61 Nordeste 0 -- -- 48
2019-03-25 17:00:00 10.9 35 Nordeste 54 Nordeste 0 -- -- 48
2019-03-25 16:00:00 11.3 33 Nordeste 54 Norte 0 -- -- 47
2019-03-25 15:00:00 11.5 30 Nordeste 52 Nordeste 0 -- -- 47
2019-03-25 14:00:00 10.7 30 Nordeste 51 Nordeste 0 -- -- 47
2019-03-25 13:00:00 10.2 26 Nordeste 49 Nordeste 0 -- -- 55
2019-03-25 12:00:00 9.6 26 Nordeste 51 Nordeste 0 -- -- 59
2019-03-25 11:00:00 8.8 27 Nordeste 48 Nordeste 0 -- -- 61
2019-03-25 10:00:00 7.7 28 Nordeste 58 Nordeste 0 -- -- 65
2019-03-25 09:00:00 6.3 27 Nordeste 49 Nordeste 0 -- -- 75
2019-03-25 08:00:00 5.2 25 Nordeste 45 Nordeste 0 -- -- 81
2019-03-25 07:00:00 4.2 19 Nordeste 33 Nordeste 0 -- -- 86
2019-03-25 06:00:00 4.5 16 Nordeste 27 Norte 0 -- -- 76
2019-03-25 05:00:00 4.8 9 Nordeste 14 Nordeste 0 -- -- 70
2019-03-25 04:00:00 5.6 6 Nordeste 18 Nordeste 0 -- -- 66
2019-03-25 03:00:00 6.1 6 Nordeste 22 Nordeste 0 -- -- 64
2019-03-25 02:00:00 7.5 14 Nordeste 29 Nordeste 0 -- -- 59
2019-03-25 01:00:00 8.2 13 Nordeste 37 Nordeste 0 -- -- 58
2019-03-25 00:00:00 9 19 Nordeste 34 Norte 0 -- -- 57